Time;durP1;ratioP1;P1;durP2;ratioP2;P2;SDS_P1;SDS_P2;PMS_P1;PMS_P2;Temp;Humidity;BMP_temperature;BMP_pressure;BME280_temperature;BME280_humidity;BME280_pressure;Samples;Min_cycle;Max_cycle;Signal;HPM_P1;HPM_P2
2023/05/24 00:01:36;;;;;;;16.52;14.60;;;435.60;2355.20;;;;;;5032318;28;20029;-55
2023/05/24 00:04:02;;;;;;;14.50;13.20;;;435.60;2355.20;;;;;;5032163;28;20467;-55
2023/05/24 00:06:28;;;;;;;14.95;13.20;;;435.60;2355.20;;;;;;5032401;28;20152;-59
2023/05/24 00:08:54;;;;;;;15.75;13.80;;;435.60;2355.20;;;;;;5032252;28;20030;-58
2023/05/24 00:11:21;;;;;;;15.05;13.63;;;435.70;2355.20;;;;;;5032321;28;20032;-55
2023/05/24 00:13:47;;;;;;;15.85;14.18;;;435.70;2355.20;;;;;;5032183;28;20025;-55
2023/05/24 00:16:13;;;;;;;17.25;13.52;;;435.70;2355.20;;;;;;5032194;28;20022;-55
2023/05/24 00:18:39;;;;;;;19.55;13.90;;;435.60;2355.20;;;;;;5032158;28;20187;-55
2023/05/24 00:21:09;;;;;;;15.65;13.57;;;435.60;2355.20;;;;;;5031986;28;20029;-55
2023/05/24 00:23:36;;;;;;;16.30;14.60;;;435.60;2355.20;;;;;;5032000;28;20030;-59
2023/05/24 00:26:02;;;;;;;14.20;12.80;;;435.60;2355.20;;;;;;5032260;28;20029;-56
2023/05/24 00:28:28;;;;;;;15.93;14.30;;;435.60;2355.20;;;;;;5031959;28;20021;-55
2023/05/24 00:30:54;;;;;;;17.45;14.18;;;435.60;2355.20;;;;;;5031738;28;20028;-55
2023/05/24 00:33:22;;;;;;;15.20;13.00;;;435.50;2355.20;;;;;;5031897;28;20021;-54
2023/05/24 00:35:48;;;;;;;15.38;13.30;;;435.50;2355.20;;;;;;5031745;28;20502;-55
2023/05/24 00:38:14;;;;;;;15.75;14.18;;;435.50;2355.20;;;;;;5031379;28;20057;-55
2023/05/24 00:40:40;;;;;;;17.17;15.48;;;435.50;2355.20;;;;;;5032040;28;20021;-58
2023/05/24 00:43:06;;;;;;;17.35;14.90;;;435.40;2355.20;;;;;;5031628;28;20036;-55
2023/05/24 00:45:31;;;;;;;16.42;14.82;;;435.40;2355.20;;;;;;5031639;28;20017;-55
2023/05/24 00:47:58;;;;;;;16.77;14.43;;;435.40;2355.20;;;;;;5031808;28;20025;-55
2023/05/24 00:50:24;;;;;;;14.60;13.30;;;435.30;2355.20;;;;;;5031578;28;20032;-55
2023/05/24 00:52:51;;;;;;;14.95;13.55;;;435.30;2355.20;;;;;;5031980;28;20029;-55
2023/05/24 00:55:16;;;;;;;19.05;14.10;;;435.40;2355.20;;;;;;5031501;28;20090;-55
2023/05/24 00:57:43;;;;;;;14.63;13.20;;;435.30;2355.20;;;;;;5031312;28;20542;-58
2023/05/24 01:00:10;;;;;;;15.75;14.10;;;435.30;2355.20;;;;;;5031476;28;20124;-56
2023/05/24 01:02:36;;;;;;;15.70;14.25;;;435.30;2355.20;;;;;;5031138;28;20025;-55
2023/05/24 01:05:03;;;;;;;16.38;14.98;;;435.30;2355.20;;;;;;5031160;28;20033;-57
2023/05/24 01:08:16;;;;;;;17.63;16.08;;;435.20;2355.20;;;;;;5030836;28;20069;-55
2023/05/24 01:10:55;;;;;;;17.55;15.70;;;435.20;2355.20;;;;;;5028759;28;20039;-55
2023/05/24 01:13:34;;;;;;;18.40;16.73;;;435.20;2355.20;;;;;;5028883;28;20033;-54
2023/05/24 01:16:08;;;;;;;17.55;16.05;;;410.50;2355.20;;;;;;5028971;28;20070;-54
2023/05/24 01:18:40;;;;;;;18.20;16.60;;;410.50;2355.20;;;;;;5028435;28;20104;-55
2023/05/24 01:21:11;;;;;;;20.73;18.42;;;435.20;2355.20;;;;;;5028670;28;20113;-55
2023/05/24 01:23:44;;;;;;;16.92;15.35;;;435.20;2355.20;;;;;;5028640;28;20033;-55
2023/05/24 01:26:12;;;;;;;16.52;15.02;;;410.50;2355.20;;;;;;5028794;28;20509;-55
2023/05/24 01:28:39;;;;;;;17.00;15.25;;;410.50;2355.20;;;;;;5028480;28;20037;-58
2023/05/24 01:31:06;;;;;;;16.45;14.90;;;410.50;2355.20;;;;;;5028211;28;20450;-59
2023/05/24 01:33:32;;;;;;;14.98;13.57;;;410.50;2355.20;;;;;;5028510;28;20495;-55
2023/05/24 01:35:57;;;;;;;15.93;14.60;;;410.50;2355.20;;;;;;5028225;28;20483;-55
2023/05/24 01:38:23;;;;;;;16.92;15.13;;;410.50;2355.20;;;;;;5027800;28;20055;-60
2023/05/24 01:40:53;;;;;;;15.70;14.32;;;410.50;2355.20;;;;;;5028372;28;20534;-55
2023/05/24 01:43:35;;;;;;;16.50;14.90;;;410.40;2355.20;;;;;;5028259;28;20454;-55
2023/05/24 01:46:10;;;;;;;17.10;15.50;;;410.40;2355.20;;;;;;5030367;28;20497;-55
2023/05/24 01:49:14;;;;;;;16.70;15.10;;;410.50;2355.20;;;;;;5030465;28;20030;-55
2023/05/24 01:51:47;;;;;;;17.02;15.32;;;410.40;2355.20;;;;;;5030116;28;20116;-59
2023/05/24 01:54:15;;;;;;;15.50;14.00;;;410.30;2355.20;;;;;;5030263;28;20097;-55
2023/05/24 01:56:43;;;;;;;13.88;12.52;;;410.30;2355.20;;;;;;5030720;28;20029;-56
2023/05/24 01:59:10;;;;;;;16.15;14.45;;;410.30;2355.20;;;;;;5030160;28;20061;-55
2023/05/24 02:01:36;;;;;;;15.65;14.10;;;410.20;2355.20;;;;;;5030266;28;20071;-55
2023/05/24 02:04:02;;;;;;;16.73;15.13;;;410.30;2355.20;;;;;;5029946;28;20467;-55
2023/05/24 02:06:28;;;;;;;17.30;15.73;;;410.30;2355.20;;;;;;5030196;28;20031;-55
2023/05/24 02:08:54;;;;;;;17.80;16.08;;;410.20;2355.20;;;;;;5030006;28;20041;-58
2023/05/24 02:11:19;;;;;;;16.50;14.98;;;410.30;2355.20;;;;;;5030321;28;20056;-55
2023/05/24 02:13:45;;;;;;;14.98;13.57;;;410.20;2355.20;;;;;;5029892;28;20390;-55
2023/05/24 02:16:12;;;;;;;16.77;15.05;;;410.20;2355.20;;;;;;5029997;28;20025;-55
2023/05/24 02:18:39;;;;;;;16.00;14.45;;;410.10;2355.20;;;;;;5029838;28;20034;-59
2023/05/24 02:21:04;;;;;;;17.25;15.55;;;410.00;2355.20;;;;;;5029148;28;20087;-55
2023/05/24 02:23:30;;;;;;;17.85;16.17;;;;;;;;;;5028555;28;20041;-55
2023/05/24 02:25:56;;;;;;;17.50;16.05;;;410.20;2355.20;;;;;;5030074;28;20100;-55
2023/05/24 02:28:22;;;;;;;17.95;16.35;;;410.00;2355.20;;;;;;5029730;28;20116;-56
2023/05/24 02:30:47;;;;;;;16.23;14.50;;;410.00;2355.20;;;;;;5029892;28;20061;-55
2023/05/24 02:33:13;;;;;;;18.88;15.75;;;410.00;2355.20;;;;;;5029558;28;20497;-55
2023/05/24 02:35:40;;;;;;;16.60;15.07;;;409.90;2355.20;;;;;;5029822;28;20025;-55
2023/05/24 02:38:06;;;;;;;15.90;14.32;;;409.90;2355.20;;;;;;5029204;28;20092;-58
2023/05/24 02:40:33;;;;;;;14.98;13.57;;;410.00;2355.20;;;;;;5029376;28;20045;-55
2023/05/24 02:42:59;;;;;;;15.93;14.23;;;410.00;2355.20;;;;;;5029625;28;20069;-55
2023/05/24 02:45:25;;;;;;;15.90;13.68;;;410.00;2355.20;;;;;;5029516;28;20048;-55
2023/05/24 02:47:50;;;;;;;16.05;14.50;;;409.90;2355.20;;;;;;5029692;28;20025;-55
2023/05/24 02:50:16;;;;;;;14.75;13.32;;;409.90;2355.20;;;;;;5029429;28;20037;-55
2023/05/24 02:52:42;;;;;;;15.18;13.73;;;409.90;2355.20;;;;;;5029433;28;20048;-56
2023/05/24 02:55:08;;;;;;;15.13;13.77;;;409.90;2355.20;;;;;;5029801;28;20025;-55
2023/05/24 02:57:34;;;;;;;18.35;14.85;;;410.00;2355.20;;;;;;5029385;28;20529;-55
2023/05/24 02:59:59;;;;;;;16.20;14.70;;;409.90;2355.20;;;;;;5029557;28;20025;-55
2023/05/24 03:02:28;;;;;;;16.38;14.63;;;410.00;2355.20;;;;;;5029473;28;20025;-55
2023/05/24 03:04:53;;;;;;;16.42;14.82;;;410.00;2355.20;;;;;;5029333;28;20060;-55
2023/05/24 03:07:19;;;;;;;16.25;14.85;;;410.00;2355.20;;;;;;5029421;28;20455;-55
2023/05/24 03:09:45;;;;;;;15.85;14.35;;;410.00;2355.20;;;;;;5029382;28;20026;-55
2023/05/24 03:12:11;;;;;;;16.02;14.57;;;410.00;2355.20;;;;;;5029809;28;20037;-55
2023/05/24 03:14:37;;;;;;;16.33;14.68;;;409.90;2355.20;;;;;;5029318;28;20394;-54
2023/05/24 03:17:03;;;;;;;18.35;14.82;;;409.90;2355.20;;;;;;5029072;28;20056;-55
2023/05/24 03:19:28;;;;;;;16.92;15.25;;;409.90;2355.20;;;;;;5029125;28;20038;-55
2023/05/24 03:21:54;;;;;;;16.77;14.23;;;410.00;2355.20;;;;;;5029405;28;20025;-55
2023/05/24 03:24:20;;;;;;;16.45;14.95;;;410.10;2355.20;;;;;;5029554;28;20494;-55
2023/05/24 03:26:46;;;;;;;16.65;15.15;;;410.10;2355.20;;;;;;5029082;28;20143;-55
2023/05/24 03:29:11;;;;;;;16.17;14.68;;;410.10;2355.20;;;;;;5029330;28;20890;-58
2023/05/24 03:31:37;;;;;;;15.70;14.13;;;410.20;2355.20;;;;;;5031167;28;20105;-55
2023/05/24 03:34:03;;;;;;;16.45;14.95;;;410.20;2355.20;;;;;;5032760;28;20034;-55
2023/05/24 03:36:29;;;;;;;16.00;14.55;;;410.20;2355.20;;;;;;5032873;28;20531;-55
2023/05/24 03:38:57;;;;;;;15.13;13.50;;;410.30;2355.20;;;;;;5032748;28;20068;-57
2023/05/24 03:41:22;;;;;;;15.90;14.13;;;410.40;2355.20;;;;;;5032723;28;20029;-55
2023/05/24 03:43:48;;;;;;;15.65;14.15;;;410.50;2355.20;;;;;;5033082;28;20032;-55
2023/05/24 03:46:14;;;;;;;14.90;12.70;;;435.20;2355.20;;;;;;5032704;28;20021;-55
2023/05/24 03:48:39;;;;;;;21.02;13.57;;;435.20;2355.20;;;;;;5032633;28;20113;-60
2023/05/24 03:51:05;;;;;;;16.80;15.18;;;435.30;2355.20;;;;;;5032448;28;20029;-54
2023/05/24 03:53:31;;;;;;;15.63;14.23;;;435.40;2355.20;;;;;;5032906;28;20026;-55
2023/05/24 03:55:56;;;;;;;17.00;14.88;;;435.60;2355.20;;;;;;5032478;28;20037;-57
2023/05/24 03:58:22;;;;;;;14.65;13.35;;;435.60;2355.20;;;;;;5032437;28;20029;-55
2023/05/24 04:00:48;;;;;;;15.38;13.88;;;435.70;2355.20;;;;;;5032692;28;20104;-55
2023/05/24 04:03:13;;;;;;;15.60;14.05;;;435.80;2355.20;;;;;;5032298;28;20360;-55
2023/05/24 04:05:39;;;;;;;14.43;13.13;;;435.90;2355.20;;;;;;5032454;28;20036;-58
2023/05/24 04:08:05;;;;;;;13.77;12.50;;;436.00;2355.20;;;;;;5032162;28;20199;-55
2023/05/24 04:10:30;;;;;;;13.93;12.73;;;436.10;2355.20;;;;;;5032491;28;20022;-56
2023/05/24 04:12:56;;;;;;;14.43;12.75;;;460.80;2380.80;;;;;;5032228;28;20025;-59
2023/05/24 04:15:22;;;;;;;14.00;12.45;;;461.00;2380.80;;;;;;5031905;28;20068;-56
2023/05/24 04:17:53;;;;;;;14.32;12.93;;;461.10;2380.80;;;;;;5032137;28;20038;-55
2023/05/24 04:20:22;;;;;;;14.63;13.13;;;461.20;2380.80;;;;;;5032197;28;20032;-56
2023/05/24 04:22:48;;;;;;;13.35;12.10;;;461.40;2380.80;;;;;;5032084;28;20112;-58
2023/05/24 04:25:14;;;;;;;13.77;12.18;;;461.20;2380.80;;;;;;5031905;28;20361;-56
2023/05/24 04:27:40;;;;;;;13.35;12.02;;;461.20;2380.80;;;;;;5032411;28;20056;-57
2023/05/24 04:30:08;;;;;;;15.88;11.95;;;461.40;2380.80;;;;;;5032255;28;20061;-59
2023/05/24 04:32:33;;;;;;;17.75;11.70;;;461.40;2380.80;;;;;;5031292;28;20049;-56
2023/05/24 04:35:01;;;;;;;12.93;11.68;;;461.50;2380.80;;;;;;5031928;28;20064;-56
2023/05/24 04:37:28;;;;;;;13.55;12.25;;;461.70;2380.80;;;;;;5030984;28;20057;-58
2023/05/24 04:39:54;;;;;;;11.98;10.77;;;487.00;2380.80;;;;;;5030777;28;20041;-56
2023/05/24 04:42:20;;;;;;;12.25;11.05;;;512.60;2380.80;;;;;;5030635;28;20017;-55
2023/05/24 04:44:46;;;;;;;13.15;10.73;;;537.80;2406.40;;;;;;5031129;28;20467;-56
2023/05/24 04:47:13;;;;;;;11.98;9.88;;;538.50;2355.20;;;;;;5031161;28;20041;-56
2023/05/24 04:49:38;;;;;;;11.13;10.02;;;563.60;2329.60;;;;;;5031103;28;20025;-56
2023/05/24 04:52:05;;;;;;;12.30;10.15;;;563.80;2252.80;;;;;;5030990;28;20029;-56
2023/05/24 04:54:32;;;;;;;11.93;10.77;;;588.80;2201.60;;;;;;5031814;28;20026;-57
2023/05/24 04:56:58;;;;;;;9.77;8.77;;;589.20;2150.40;;;;;;5031545;28;20021;-55
2023/05/24 04:59:23;;;;;;;9.95;9.02;;;589.70;2099.20;;;;;;5030707;28;20056;-56
2023/05/24 05:01:49;;;;;;;10.95;9.70;;;614.70;2048.00;;;;;;5031652;28;20061;-56
2023/05/24 05:04:15;;;;;;;12.68;9.00;;;640.10;1971.20;;;;;;5031002;28;20365;-56
2023/05/24 05:06:43;;;;;;;10.27;9.30;;;640.50;1920.00;;;;;;5030908;28;20033;-57
2023/05/24 05:09:10;;;;;;;10.25;9.05;;;665.60;1894.40;;;;;;5031482;28;20061;-58
2023/05/24 05:11:36;;;;;;;11.43;8.95;;;666.30;1843.20;;;;;;5031343;28;20107;-60
2023/05/24 05:14:02;;;;;;;10.65;8.57;;;691.90;1740.80;;;;;;5031008;28;20060;-57
2023/05/24 05:16:28;;;;;;;11.38;8.13;;;742.50;1664.00;;;;;;5030852;28;20049;-56
2023/05/24 05:18:53;;;;;;;10.30;9.30;;;768.60;1561.60;;;;;;5030280;28;20490;-57
2023/05/24 05:21:19;;;;;;;9.10;8.20;;;819.50;1459.20;;;;;;5030650;28;20025;-56
2023/05/24 05:23:45;;;;;;;11.43;8.35;;;844.90;1433.60;;;;;;5030856;28;20064;-57
2023/05/24 05:26:11;;;;;;;9.38;8.23;;;845.60;1382.40;;;;;;5031553;28;20060;-57
2023/05/24 05:28:37;;;;;;;11.52;8.05;;;;;;;;;;5031047;28;20365;-59
2023/05/24 05:31:03;;;;;;;9.23;8.10;;;;;;;;;;5030741;28;20021;-59
2023/05/24 05:33:32;;;;;;;11.63;7.50;;;870.80;1356.80;;;;;;5030862;28;20037;-58
2023/05/24 05:35:57;;;;;;;8.80;7.82;;;947.40;1203.20;;;;;;5030595;28;20030;-57
2023/05/24 05:38:23;;;;;;;9.35;8.18;;;947.20;1203.20;;;;;;5030165;28;20057;-57
2023/05/24 05:40:49;;;;;;;9.98;8.25;;;947.80;1203.20;;;;;;5030802;28;20446;-58
2023/05/24 05:43:15;;;;;;;10.23;8.45;;;947.90;1177.60;;;;;;5030480;28;20140;-57
2023/05/24 05:45:40;;;;;;;10.07;9.00;;;973.00;1177.60;;;;;;5030619;28;20029;-57
2023/05/24 05:48:06;;;;;;;10.75;9.65;;;973.20;1177.60;;;;;;5030455;28;20415;-58
2023/05/24 05:50:32;;;;;;;11.60;9.65;;;998.50;1177.60;;;;;;5030735;28;20032;-58
2023/05/24 05:52:57;;;;;;;10.95;9.63;;;973.40;1177.60;;;;;;5030524;28;20025;-58
2023/05/24 05:55:23;;;;;;;10.75;9.73;;;973.00;1177.60;;;;;;5029470;28;20124;-58
2023/05/24 05:57:49;;;;;;;10.82;9.80;;;973.00;1177.60;;;;;;5030327;28;20033;-58
2023/05/24 06:00:15;;;;;;;11.57;10.07;;;947.90;1177.60;;;;;;5030350;28;20052;-58
2023/05/24 06:02:41;;;;;;;10.55;9.68;;;947.40;1203.20;;;;;;5029393;28;20064;-58
2023/05/24 06:05:07;;;;;;;10.38;9.52;;;922.50;1228.80;;;;;;5030040;28;20056;-58
2023/05/24 06:07:34;;;;;;;11.95;10.85;;;947.40;1228.80;;;;;;5029261;28;20025;-56
2023/05/24 06:10:00;;;;;;;12.75;11.43;;;;;;;;;;5030064;28;20033;-58
2023/05/24 06:12:26;;;;;;;10.75;9.73;;;947.60;1203.20;;;;;;5029893;28;20026;-57
2023/05/24 06:14:52;;;;;;;10.02;9.20;;;972.90;1203.20;;;;;;5029723;28;20034;-61
2023/05/24 06:17:17;;;;;;;11.57;9.43;;;973.20;1203.20;;;;;;5030081;28;20029;-60
2023/05/24 06:19:43;;;;;;;11.13;10.00;;;973.60;1177.60;;;;;;5029632;28;20037;-60
2023/05/24 06:22:09;;;;;;;11.32;10.20;;;998.80;1152.00;;;;;;5029921;28;20032;-60
2023/05/24 06:24:35;;;;;;;11.38;10.27;;;998.90;1152.00;;;;;;5029640;28;20033;-60
2023/05/24 06:27:01;;;;;;;12.23;11.05;;;1049.80;1100.80;;;;;;5029807;28;20075;-60
2023/05/24 06:29:27;;;;;;;11.68;10.68;;;1075.70;1024.00;;;;;;5029863;28;20522;-74
2023/05/24 06:31:52;;;;;;;10.75;9.93;;;1100.80;1049.60;;;;;;5029587;28;20044;-68
2023/05/24 06:34:22;;;;;;;11.20;10.15;;;1126.70;1024.00;;;;;;5029574;28;20022;-60
2023/05/24 06:36:49;;;;;;;18.48;16.63;;;1126.90;1024.00;;;;;;5029334;28;20068;-61
2023/05/24 06:39:16;;;;;;;14.15;12.88;;;1152.20;998.40;;;;;;5029332;28;20153;-60
2023/05/24 06:41:43;;;;;;;13.93;12.63;;;1152.10;998.40;;;;;;5029509;28;20038;-61
2023/05/24 06:44:09;;;;;;;14.10;12.82;;;1152.40;972.80;;;;;;5029597;28;20075;-70
2023/05/24 06:46:35;;;;;;;13.02;11.93;;;1152.50;972.80;;;;;;5029437;28;20021;-60
2023/05/24 06:49:01;;;;;;;13.07;11.88;;;1152.50;947.20;;;;;;5029434;28;20025;-61
2023/05/24 06:51:26;;;;;;;12.60;11.50;;;1152.60;947.20;;;;;;5029458;28;20355;-61
2023/05/24 06:53:52;;;;;;;12.50;11.23;;;1177.70;947.20;;;;;;5029490;28;20034;-62
2023/05/24 06:56:18;;;;;;;12.50;10.95;;;1178.00;947.20;;;;;;5029583;28;20022;-60
2023/05/24 06:58:44;;;;;;;13.30;12.07;;;1178.10;896.00;;;;;;5029382;28;20070;-61
2023/05/24 07:01:10;;;;;;;13.05;11.75;;;1178.10;921.60;;;;;;5029713;28;20034;-62
2023/05/24 07:03:36;;;;;;;12.23;11.20;;;1152.50;947.20;;;;;;5029154;28;20040;-61
2023/05/24 07:06:02;;;;;;;11.32;10.32;;;1177.60;921.60;;;;;;5030179;28;20160;-62
2023/05/24 07:08:28;;;;;;;10.48;8.77;;;1152.50;947.20;;;;;;5033334;28;20025;-62
2023/05/24 07:10:54;;;;;;;11.05;10.15;;;1152.70;947.20;;;;;;5030277;28;20076;-69
2023/05/24 07:13:20;;;;;;;11.45;10.20;;;1152.20;947.20;;;;;;5031444;28;20472;-62
2023/05/24 07:15:46;;;;;;;10.32;9.32;;;1127.30;972.80;;;;;;5030247;28;20101;-62
2023/05/24 07:18:12;;;;;;;11.00;10.02;;;1152.10;972.80;;;;;;5031380;28;20120;-61
2023/05/24 07:20:38;;;;;;;10.10;9.20;;;1177.80;947.20;;;;;;5031752;28;20444;-61
2023/05/24 07:23:05;;;;;;;11.63;10.60;;;1177.70;947.20;;;;;;5031502;28;20032;-61
2023/05/24 07:25:32;;;;;;;11.38;10.45;;;1178.20;921.60;;;;;;5031863;28;20026;-61
2023/05/24 07:27:58;;;;;;;12.95;10.95;;;1178.20;921.60;;;;;;5031142;28;20033;-61
2023/05/24 07:30:24;;;;;;;12.90;11.82;;;1178.30;921.60;;;;;;5031537;28;20032;-61
2023/05/24 07:32:50;;;;;;;12.88;11.77;;;1152.70;972.80;;;;;;5031670;28;20124;-61
2023/05/24 07:35:16;;;;;;;13.60;12.60;;;1178.00;947.20;;;;;;5031286;28;20021;-63
2023/05/24 07:37:42;;;;;;;14.15;12.63;;;1177.70;947.20;;;;;;5031019;28;20061;-61
2023/05/24 07:40:11;;;;;;;14.25;13.05;;;1203.30;921.60;;;;;;5031032;28;20159;-61
2023/05/24 07:42:37;;;;;;;13.73;12.82;;;1203.70;921.60;;;;;;5031342;28;20021;-66
2023/05/24 07:45:05;;;;;;;13.10;12.10;;;1229.20;921.60;;;;;;5031091;28;20037;-64
2023/05/24 07:47:31;;;;;;;13.10;12.20;;;1228.80;947.20;;;;;;5031366;28;20052;-61
2023/05/24 07:49:57;;;;;;;13.82;12.55;;;1228.80;921.60;;;;;;5031011;28;20239;-65
2023/05/24 07:52:23;;;;;;;14.82;13.75;;;1229.20;896.00;;;;;;5031019;28;20383;-61
2023/05/24 07:54:49;;;;;;;13.10;12.25;;;1228.80;921.60;;;;;;5030687;28;20040;-62
2023/05/24 07:57:14;;;;;;;12.95;11.65;;;1228.80;921.60;;;;;;5031012;28;20485;-61
2023/05/24 07:59:40;;;;;;;11.40;10.48;;;1152.90;972.80;;;;;;5030894;28;20119;-63
2023/05/24 08:02:10;;;;;;;10.88;9.88;;;1101.10;1024.00;;;;;;5030974;28;20402;-61
2023/05/24 08:04:36;;;;;;;12.23;11.02;;;999.30;1100.80;;;;;;5030584;28;20480;-63
2023/05/24 08:07:02;;;;;;;12.88;11.88;;;1049.60;1100.80;;;;;;5030314;28;20036;-63
2023/05/24 08:09:28;;;;;;;13.05;12.10;;;1075.60;1049.60;;;;;;5030840;28;20142;-64
2023/05/24 08:11:55;;;;;;;13.52;12.23;;;1126.50;1024.00;;;;;;5030582;28;20112;-61
2023/05/24 08:14:22;;;;;;;12.70;11.55;;;1101.20;998.40;;;;;;5030910;28;20072;-62
2023/05/24 08:16:48;;;;;;;11.63;10.48;;;1075.80;1024.00;;;;;;5030666;28;20121;-61
2023/05/24 08:19:13;;;;;;;10.25;9.35;;;999.30;1126.40;;;;;;5028899;28;20116;-62
2023/05/24 08:21:41;;;;;;;11.05;10.05;;;973.10;1203.20;;;;;;5030748;28;20026;-62
2023/05/24 08:24:07;;;;;;;11.80;10.65;;;947.30;1254.40;;;;;;5030434;28;20038;-62
2023/05/24 08:26:32;;;;;;;10.88;9.88;;;921.90;1280.00;;;;;;5030768;28;20032;-61
2023/05/24 08:28:58;;;;;;;11.85;10.85;;;896.50;1280.00;;;;;;5030760;28;20658;-59
2023/05/24 08:31:25;;;;;;;15.10;10.15;;;896.00;1305.60;;;;;;5030545;28;20040;-62
2023/05/24 08:33:51;;;;;;;10.68;9.57;;;871.10;1305.60;;;;;;5029956;28;20075;-61
2023/05/24 08:36:17;;;;;;;11.13;9.93;;;870.50;1382.40;;;;;;5030158;28;20025;-65
2023/05/24 08:38:43;;;;;;;12.38;9.73;;;845.60;1408.00;;;;;;5030102;28;20042;-63
2023/05/24 08:41:10;;;;;;;11.55;10.48;;;845.40;1433.60;;;;;;5030284;28;20071;-66
2023/05/24 08:43:37;;;;;;;12.10;11.00;;;845.10;1433.60;;;;;;5030174;28;20460;-64
2023/05/24 08:46:04;;;;;;;9.10;8.23;;;845.30;1433.60;;;;;;5029614;28;20486;-62
2023/05/24 08:48:30;;;;;;;12.68;10.05;;;820.10;1459.20;;;;;;5030333;28;20063;-68
2023/05/24 08:50:57;;;;;;;12.30;9.82;;;845.00;1459.20;;;;;;5029939;28;20083;-60
2023/05/24 08:53:23;;;;;;;11.65;10.57;;;820.10;1433.60;;;;;;5029853;28;20032;-63
2023/05/24 08:55:53;;;;;;;11.85;9.43;;;819.90;1459.20;;;;;;5030434;28;20172;-63
2023/05/24 08:58:19;;;;;;;11.82;9.52;;;819.90;1433.60;;;;;;5029652;28;20038;-64
2023/05/24 09:00:45;;;;;;;11.65;9.68;;;819.60;1433.60;;;;;;5029781;28;20055;-65
2023/05/24 09:03:12;;;;;;;11.18;10.05;;;819.70;1433.60;;;;;;5029892;28;20025;-60
2023/05/24 09:05:40;;;;;;;12.10;9.55;;;819.60;1433.60;;;;;;5029727;28;20040;-63
2023/05/24 09:08:07;;;;;;;13.38;10.77;;;819.20;1484.80;;;;;;5029565;28;20030;-65
2023/05/24 09:10:33;;;;;;;13.13;10.82;;;794.50;1459.20;;;;;;5029531;28;20025;-72
2023/05/24 09:13:01;;;;;;;13.13;9.80;;;794.40;1484.80;;;;;;5029485;28;20040;-66
2023/05/24 09:15:26;;;;;;;10.43;9.30;;;794.50;1484.80;;;;;;5029543;28;20029;-62
2023/05/24 09:17:52;;;;;;;11.07;9.95;;;794.10;1510.40;;;;;;5029420;28;20038;-60
2023/05/24 09:20:19;;;;;;;10.73;9.63;;;819.30;1484.80;;;;;;5029575;28;20029;-60
2023/05/24 09:22:50;;;;;;;11.80;10.68;;;794.40;1510.40;;;;;;5029333;28;20573;-63
2023/05/24 09:25:17;;;;;;;12.77;11.48;;;794.10;1536.00;;;;;;5029017;28;20372;-60
2023/05/24 09:27:49;;;;;;;17.48;11.43;;;819.30;1510.40;;;;;;5029291;28;20072;-60
2023/05/24 09:30:15;;;;;;;13.97;12.43;;;819.30;1510.40;;;;;;5029098;28;20101;-61
2023/05/24 09:32:54;;;;;;;12.70;10.27;;;794.20;1510.40;;;;;;5029064;28;20117;-59
2023/05/24 09:35:20;;;;;;;10.05;9.05;;;794.20;1536.00;;;;;;5031090;28;20079;-59
2023/05/24 09:37:47;;;;;;;11.40;10.27;;;794.50;1510.40;;;;;;5030014;28;20421;-59
2023/05/24 09:40:19;;;;;;;16.30;11.98;;;794.40;1510.40;;;;;;5030529;28;20116;-59
2023/05/24 09:42:45;;;;;;;12.90;10.25;;;794.50;1536.00;;;;;;5030579;28;20510;-59
2023/05/24 09:45:11;;;;;;;15.32;10.70;;;794.10;1561.60;;;;;;5030819;28;20057;-59
2023/05/24 09:47:41;;;;;;;14.82;11.82;;;768.80;1587.20;;;;;;5030454;28;20025;-59
2023/05/24 09:50:16;;;;;;;12.38;11.02;;;768.20;1612.80;;;;;;5030296;28;20100;-59
2023/05/24 09:52:42;;;;;;;17.42;13.07;;;742.90;1664.00;;;;;;5030477;28;20100;-59
2023/05/24 09:55:18;;;;;;;11.80;10.40;;;743.00;1715.20;;;;;;5030583;28;20049;-59
2023/05/24 09:58:07;;;;;;;13.30;10.65;;;742.50;1740.80;;;;;;5030138;28;20029;-59
2023/05/24 10:00:35;;;;;;;13.50;10.77;;;717.50;1740.80;;;;;;5030106;28;20116;-60
2023/05/24 10:03:13;;;;;;;14.68;11.18;;;691.90;1792.00;;;;;;5030283;28;20384;-59
2023/05/24 10:05:43;;;;;;;13.85;10.82;;;717.20;1792.00;;;;;;5030082;28;20499;-61
2023/05/24 10:08:10;;;;;;;13.43;10.55;;;717.40;1792.00;;;;;;5030201;28;20033;-58
2023/05/24 10:10:36;;;;;;;15.00;11.13;;;691.90;1792.00;;;;;;5030026;28;20132;-59
2023/05/24 10:13:02;;;;;;;16.17;11.30;;;691.40;1843.20;;;;;;5030158;28;20022;-59
2023/05/24 10:15:29;;;;;;;12.35;10.95;;;692.00;1817.60;;;;;;5030059;28;20470;-60
2023/05/24 10:17:56;;;;;;;12.02;10.85;;;716.90;1792.00;;;;;;5029723;28;20497;-60
2023/05/24 10:20:23;;;;;;;12.00;10.80;;;717.10;1766.40;;;;;;5029899;28;20371;-60
2023/05/24 10:22:59;;;;;;;12.30;10.23;;;716.80;1792.00;;;;;;5029879;28;20472;-60
2023/05/24 10:25:27;;;;;;;11.77;10.57;;;691.90;1792.00;;;;;;5029733;28;20044;-59
2023/05/24 10:28:06;;;;;;;11.35;10.25;;;691.40;1792.00;;;;;;5029490;28;20047;-60
2023/05/24 10:30:34;;;;;;;15.60;11.35;;;691.30;1817.60;;;;;;5029784;28;20034;-62
2023/05/24 10:33:01;;;;;;;14.20;10.60;;;691.20;1817.60;;;;;;5029795;28;20017;-59
2023/05/24 10:35:28;;;;;;;17.65;10.68;;;691.40;1817.60;;;;;;5029291;28;20029;-60
2023/05/24 10:37:54;;;;;;;11.35;10.15;;;691.50;1817.60;;;;;;5029255;28;20054;-60
2023/05/24 10:40:24;;;;;;;12.52;10.43;;;691.90;1792.00;;;;;;5028690;28;20360;-59
2023/05/24 10:42:50;;;;;;;13.50;10.10;;;716.80;1766.40;;;;;;5029180;28;20093;-69
2023/05/24 10:45:30;;;;;;;12.35;10.93;;;691.80;1766.40;;;;;;5029242;28;20029;-59
2023/05/24 10:48:00;;;;;;;11.80;10.57;;;691.80;1792.00;;;;;;5026197;28;20023;-59
2023/05/24 10:50:28;;;;;;;14.70;10.90;;;691.80;1792.00;;;;;;5028940;28;20103;-66
2023/05/24 10:53:11;;;;;;;11.23;10.18;;;716.80;1843.20;;;;;;5029083;28;20129;-59
2023/05/24 10:55:51;;;;;;;;;;;716.80;1766.40;;;;;;5030272;28;20393;-59
2023/05/24 10:58:17;;;;;;;12.25;9.80;;;716.80;1766.40;;;;;;5029565;28;19913;-60
2023/05/24 11:00:44;;;;;;;13.20;10.43;;;716.90;1740.80;;;;;;5029433;28;20024;-60
2023/05/24 11:03:12;;;;;;;11.80;10.27;;;717.00;1740.80;;;;;;5029540;28;20029;-59
2023/05/24 11:05:58;;;;;;;18.13;10.68;;;717.20;1740.80;;;;;;5029157;28;20025;-59
2023/05/24 11:08:34;;;;;;;12.38;10.10;;;717.00;1792.00;;;;;;5028950;28;20061;-58
2023/05/24 11:11:06;;;;;;;12.73;10.55;;;692.10;1766.40;;;;;;5029580;28;20072;-58
2023/05/24 11:13:32;;;;;;;11.40;10.25;;;717.30;1766.40;;;;;;5029436;28;20083;-59
2023/05/24 11:15:59;;;;;;;11.98;10.73;;;717.20;1740.80;;;;;;5029342;28;20084;-58
2023/05/24 11:18:24;;;;;;;10.50;9.50;;;717.20;1715.20;;;;;;5028874;28;20442;-59
2023/05/24 11:20:51;;;;;;;10.50;9.45;;;717.60;1715.20;;;;;;5028993;28;20018;-60
2023/05/24 11:23:18;;;;;;;16.55;10.55;;;717.20;1715.20;;;;;;5027948;28;20033;-59
2023/05/24 11:25:46;;;;;;;13.63;9.88;;;692.10;1740.80;;;;;;5028140;28;20091;-60
2023/05/24 11:28:12;;;;;;;13.18;9.93;;;716.90;1766.40;;;;;;5028620;28;20022;-60
2023/05/24 11:30:42;;;;;;;11.13;10.05;;;691.90;1766.40;;;;;;5028779;28;20051;-60
2023/05/24 11:33:26;;;;;;;16.38;9.40;;;691.80;1792.00;;;;;;5028944;28;20111;-60
2023/05/24 11:35:54;;;;;;;13.70;9.38;;;716.80;1817.60;;;;;;5028645;28;20030;-60
2023/05/24 11:38:20;;;;;;;12.30;9.88;;;717.20;1817.60;;;;;;5028285;28;20377;-61
2023/05/24 11:40:48;;;;;;;13.95;11.05;;;717.00;1792.00;;;;;;5028708;28;20021;-60
2023/05/24 11:43:18;;;;;;;11.02;10.02;;;716.90;1843.20;;;;;;5026902;28;20022;-62
2023/05/24 11:45:47;;;;;;;13.88;10.55;;;716.90;1817.60;;;;;;5027080;28;20029;-68
2023/05/24 11:48:13;;;;;;;12.60;10.95;;;691.90;1817.60;;;;;;5027170;28;20040;-61
2023/05/24 11:50:45;;;;;;;14.60;10.27;;;691.50;1843.20;;;;;;5027447;28;20025;-60
2023/05/24 11:53:16;;;;;;;13.18;10.70;;;691.80;1868.80;;;;;;5030212;28;20033;-67
2023/05/24 11:55:41;;;;;;;14.30;10.95;;;691.30;1843.20;;;;;;5030571;28;20022;-60
2023/05/24 11:58:28;;;;;;;16.90;10.52;;;691.90;1817.60;;;;;;5031380;28;20033;-60
2023/05/24 12:00:54;;;;;;;13.52;9.80;;;717.20;1817.60;;;;;;5032631;28;20049;-60
2023/05/24 12:03:20;;;;;;;12.40;11.18;;;717.70;1792.00;;;;;;5032411;28;20063;-60
2023/05/24 12:05:46;;;;;;;11.82;10.63;;;742.40;1792.00;;;;;;5031990;28;20486;-60